BENVENUTI AL 154° GRUPPO VIRTUALE
Wednesday, 19 November 2014 01:00

Lorem ipsum dolor sit amet

Written by
Rate this item
(1 Vote)
qui officia deserunt mollit anim id est laborum. Sed ut perspiciatis unde omnis iste natus error sit voluptatem accusantium doloremque laudantium, totam rem aperiam, eaque ipsa quae ab illo inventore veritatis et quasi mountains architecto beatae vitae dicta sunt explicabo.
Read 814 times Last modified on Sunday, 06 October 2019 17:49

1 comment

Leave a comment

Make sure you enter all the required information, indicated by an asterisk (*). HTML code is not allowed.

METAR & TAF

[Source: ADDS]
METAR
LIPL 242055Z 09002KT 9999 -RA BKN040 15/15 Q1014 RMK BKN VIS MIN 9999 WIND THR31 07002KT WIND THR13 07002KT BLU =
LIPL 242000Z 2421/2506 05010KT 9999 FEW030 BKN060 TEMPO 2421/2503 5000 RA BKN030 BECMG 2423/2501 27010KT
TAF
LIPL 242000Z 2421/2506 05010KT 9999 FEW030 BKN060 TEMPO 2421/2503 5000 RA BKN030 BECMG 2423/2501 27010KT =

Notice: Undefined index: sun in /web/htdocs/www.154gruppovirtuale.it/home/modules/mod_wx/tmpl/default.php on line 13

Official Tools

CombatFlite Logo  
 
   

Network

Simulation Platform